createdAt,value
2019-03-31T00:00:03.458Z,43.60
2019-03-31T00:03:00.937Z,43.50
2019-03-31T00:05:57.739Z,43.70
2019-03-31T00:08:54.844Z,43.70
2019-03-31T00:11:51.204Z,43.80
2019-03-31T00:14:47.383Z,43.80
2019-03-31T00:17:43.371Z,43.70
2019-03-31T00:20:39.406Z,43.80
2019-03-31T00:23:36.107Z,43.90
2019-03-31T00:26:33.372Z,43.90
2019-03-31T00:29:29.717Z,44.00
2019-03-31T00:32:25.654Z,43.90
2019-03-31T00:35:22.245Z,43.90
2019-03-31T00:38:18.446Z,44.00
2019-03-31T00:41:14.228Z,44.10
2019-03-31T00:44:09.711Z,44.00
2019-03-31T00:47:06.058Z,44.20
2019-03-31T00:50:02.302Z,44.20
2019-03-31T00:52:58.534Z,44.30
2019-03-31T00:55:55.936Z,45.00
2019-03-31T00:58:54.512Z,44.30
2019-03-31T01:01:57.007Z,44.30
2019-03-31T01:04:53.608Z,44.10
2019-03-31T01:07:50.573Z,44.20
2019-03-31T01:10:47.937Z,44.20
2019-03-31T01:13:44.840Z,44.10
2019-03-31T01:16:42.272Z,44.20
2019-03-31T01:19:39.633Z,44.20
2019-03-31T01:22:36.300Z,44.30
2019-03-31T01:25:33.080Z,44.90
2019-03-31T01:28:30.248Z,44.30
2019-03-31T01:31:28.361Z,44.30
2019-03-31T01:34:24.032Z,44.50
2019-03-31T01:37:20.586Z,44.30
2019-03-31T01:40:17.230Z,44.40
2019-03-31T01:43:13.190Z,44.60
2019-03-31T01:46:12.035Z,44.40
2019-03-31T01:49:09.179Z,44.30
2019-03-31T01:52:05.507Z,44.40
2019-03-31T01:55:02.256Z,44.60
2019-03-31T01:57:58.385Z,44.60
2019-03-31T02:00:58.251Z,44.50
2019-03-31T02:03:54.504Z,44.60
2019-03-31T02:06:50.318Z,44.60
2019-03-31T02:09:46.535Z,44.70
2019-03-31T02:12:43.173Z,44.70
2019-03-31T02:15:40.026Z,44.70
2019-03-31T02:18:36.211Z,44.70
2019-03-31T02:21:35.245Z,44.70
2019-03-31T02:24:31.164Z,44.70
2019-03-31T02:27:28.182Z,44.70
2019-03-31T02:30:24.297Z,44.70
2019-03-31T02:33:20.331Z,44.70
2019-03-31T02:36:18.361Z,44.70
2019-03-31T02:39:14.669Z,44.70
2019-03-31T02:42:11.273Z,44.70
2019-03-31T02:45:07.684Z,44.70
2019-03-31T02:48:04.772Z,44.40
2019-03-31T02:51:02.194Z,44.80
2019-03-31T02:53:58.180Z,45.30
2019-03-31T02:56:54.439Z,45.20
2019-03-31T02:59:51.690Z,45.00
2019-03-31T03:02:48.567Z,45.00
2019-03-31T03:05:45.602Z,45.00
2019-03-31T03:08:43.428Z,46.00
2019-03-31T03:11:39.631Z,45.20
2019-03-31T03:14:37.995Z,45.20
2019-03-31T03:17:34.132Z,45.20
2019-03-31T03:20:30.191Z,45.10
2019-03-31T03:23:26.585Z,45.50
2019-03-31T03:26:24.041Z,45.50
2019-03-31T03:29:21.306Z,45.50
2019-03-31T03:32:18.322Z,45.60
2019-03-31T03:35:14.591Z,46.40
2019-03-31T03:38:10.738Z,45.60
2019-03-31T03:41:07.351Z,45.60
2019-03-31T03:44:04.742Z,45.60
2019-03-31T03:47:00.868Z,45.60
2019-03-31T03:49:56.747Z,45.70
2019-03-31T03:52:54.112Z,46.00
2019-03-31T03:55:50.555Z,46.40
2019-03-31T03:58:46.503Z,46.60
2019-03-31T04:01:44.207Z,47.50
2019-03-31T04:04:40.476Z,46.10
2019-03-31T04:07:36.859Z,46.30
2019-03-31T04:11:21.477Z,46.40
2019-03-31T04:14:17.466Z,46.50
2019-03-31T04:17:15.258Z,47.20
2019-03-31T04:20:11.422Z,46.60
2019-03-31T04:23:07.308Z,47.20
2019-03-31T04:26:03.958Z,47.00
2019-03-31T04:28:59.794Z,46.70
2019-03-31T04:31:55.432Z,46.90
2019-03-31T04:34:51.605Z,46.90
2019-03-31T04:37:47.474Z,46.90
2019-03-31T04:40:43.533Z,47.00
2019-03-31T04:43:40.507Z,47.00
2019-03-31T04:46:36.971Z,48.10
2019-03-31T04:49:33.151Z,47.30
2019-03-31T04:52:28.783Z,47.50
2019-03-31T04:55:25.166Z,47.80
2019-03-31T04:58:22.619Z,47.70
2019-03-31T05:01:20.754Z,47.70
2019-03-31T05:04:16.749Z,47.80
2019-03-31T05:07:15.404Z,48.10
2019-03-31T05:10:12.165Z,48.10
2019-03-31T05:13:08.513Z,48.00
2019-03-31T05:16:05.207Z,47.80
2019-03-31T05:19:01.690Z,48.10
2019-03-31T05:21:57.446Z,47.90
2019-03-31T05:24:53.911Z,47.70
2019-03-31T05:27:50.815Z,47.70
2019-03-31T05:30:49.214Z,47.80
2019-03-31T05:33:46.513Z,47.80
2019-03-31T05:36:53.692Z,48.70
2019-03-31T05:39:49.772Z,48.70
2019-03-31T05:42:46.001Z,47.50
2019-03-31T05:45:45.243Z,47.90
2019-03-31T05:48:43.084Z,48.20
2019-03-31T05:51:39.595Z,48.00
2019-03-31T05:54:36.949Z,47.90
2019-03-31T05:57:34.760Z,48.00
2019-03-31T06:00:44.300Z,47.80
2019-03-31T06:03:42.868Z,47.80
2019-03-31T06:06:41.306Z,47.70
2019-03-31T06:09:38.251Z,47.80
2019-03-31T06:12:35.072Z,47.80
2019-03-31T06:15:31.386Z,47.40
2019-03-31T06:18:28.636Z,48.80
2019-03-31T06:21:24.673Z,47.80
2019-03-31T06:24:20.780Z,47.50
2019-03-31T06:27:16.899Z,47.50
2019-03-31T06:30:13.678Z,47.90
2019-03-31T06:33:15.044Z,47.60
2019-03-31T06:36:17.483Z,47.20
2019-03-31T06:39:13.369Z,47.30
2019-03-31T06:42:11.357Z,47.50
2019-03-31T06:45:10.807Z,47.30
2019-03-31T06:48:07.084Z,47.20
2019-03-31T06:51:03.789Z,47.80
2019-03-31T06:54:02.760Z,47.10
2019-03-31T06:57:01.124Z,47.10
2019-03-31T07:00:04.656Z,47.00
2019-03-31T07:03:02.055Z,46.80
2019-03-31T07:06:03.123Z,46.60
2019-03-31T07:24:14.363Z,46.90
2019-03-31T07:27:11.376Z,46.90
2019-03-31T07:33:53.755Z,46.50
2019-03-31T07:36:52.578Z,46.50
2019-03-31T07:39:49.695Z,46.40
2019-03-31T07:42:50.854Z,47.30
2019-03-31T07:45:46.262Z,46.40
2019-03-31T07:48:42.531Z,46.30
2019-03-31T07:51:39.180Z,46.30
2019-03-31T07:54:35.548Z,46.40
2019-03-31T07:57:37.419Z,46.20
2019-03-31T08:00:37.248Z,46.40
2019-03-31T08:03:50.568Z,46.10
2019-03-31T08:06:49.164Z,46.30
2019-03-31T08:09:47.424Z,48.00
2019-03-31T08:12:50.618Z,46.40
2019-03-31T08:19:47.947Z,46.10
2019-03-31T08:22:44.850Z,46.00
2019-03-31T08:25:44.148Z,46.00
2019-03-31T08:28:54.196Z,45.90
2019-03-31T08:32:06.746Z,45.80
2019-03-31T08:35:03.248Z,46.30
2019-03-31T08:38:02.265Z,45.90
2019-03-31T08:40:58.484Z,46.10
2019-03-31T08:43:57.911Z,46.30
2019-03-31T08:46:58.617Z,46.30
2019-03-31T08:50:04.335Z,45.60
2019-03-31T08:53:17.854Z,45.60
2019-03-31T08:56:08.885Z,45.50
2019-03-31T08:59:04.237Z,45.40
2019-03-31T09:02:56.801Z,45.50
2019-03-31T09:06:17.360Z,45.40
2019-03-31T09:09:35.442Z,45.50
2019-03-31T09:13:31.473Z,45.20
2019-03-31T09:16:46.865Z,45.40
2019-03-31T09:20:11.584Z,45.50
2019-03-31T09:23:07.938Z,45.20
2019-03-31T09:26:47.670Z,45.40
2019-03-31T09:29:53.462Z,45.30
2019-03-31T09:32:56.821Z,45.30
2019-03-31T09:35:55.718Z,45.00
2019-03-31T09:38:52.771Z,44.80
2019-03-31T09:41:53.079Z,45.10
2019-03-31T09:44:49.470Z,44.80
2019-03-31T09:47:45.896Z,44.70
2019-03-31T09:50:42.481Z,44.70
2019-03-31T09:53:39.140Z,44.60
2019-03-31T09:56:51.886Z,44.50
2019-03-31T09:59:48.989Z,44.50
2019-03-31T10:02:53.848Z,44.50
2019-03-31T10:05:50.846Z,44.50
2019-03-31T10:08:47.757Z,44.50
2019-03-31T10:11:44.763Z,44.50
2019-03-31T10:14:40.725Z,44.40
2019-03-31T10:17:36.884Z,44.40
2019-03-31T10:20:51.085Z,45.10
2019-03-31T10:24:00.290Z,44.50
2019-03-31T10:26:59.057Z,44.70
2019-03-31T10:29:56.555Z,44.50
2019-03-31T10:32:54.373Z,44.30
2019-03-31T10:35:51.556Z,44.40
2019-03-31T10:38:56.598Z,44.40
2019-03-31T10:45:29.499Z,44.50
2019-03-31T10:48:25.935Z,45.00
2019-03-31T10:55:33.129Z,44.50
2019-03-31T10:58:30.950Z,45.50
2019-03-31T11:01:48.321Z,44.40
2019-03-31T11:05:03.523Z,45.50
2019-03-31T11:07:59.684Z,48.00
2019-03-31T11:14:38.104Z,48.80
2019-03-31T11:17:43.297Z,48.10
2019-03-31T11:21:01.701Z,47.10
2019-03-31T11:23:58.216Z,47.10
2019-03-31T11:27:11.325Z,48.00
2019-03-31T11:30:18.606Z,48.10
2019-03-31T11:37:44.976Z,47.80
2019-03-31T11:41:10.350Z,47.90
2019-03-31T11:44:27.429Z,47.90
2019-03-31T11:48:01.173Z,47.90
2019-03-31T11:51:00.319Z,47.90
2019-03-31T11:53:56.226Z,47.90
2019-03-31T11:56:53.273Z,48.10
2019-03-31T11:59:49.947Z,47.70
2019-03-31T12:02:46.516Z,47.80
2019-03-31T12:05:42.448Z,47.70
2019-03-31T12:08:39.545Z,47.90
2019-03-31T12:11:35.854Z,47.90
2019-03-31T12:14:32.623Z,47.50
2019-03-31T12:17:28.623Z,47.80
2019-03-31T12:20:25.008Z,48.00
2019-03-31T12:23:27.247Z,47.90
2019-03-31T12:26:31.387Z,48.20
2019-03-31T12:29:29.615Z,48.10
2019-03-31T12:32:26.384Z,47.90
2019-03-31T12:35:23.482Z,47.90
2019-03-31T12:38:43.263Z,48.00
2019-03-31T12:41:52.298Z,48.30
2019-03-31T12:44:51.765Z,48.00
2019-03-31T12:47:47.985Z,48.20
2019-03-31T12:50:43.967Z,48.30
2019-03-31T12:53:51.063Z,48.30
2019-03-31T12:57:07.597Z,48.30
2019-03-31T13:00:09.989Z,48.20
2019-03-31T13:03:07.426Z,48.10
2019-03-31T13:06:03.072Z,48.60
2019-03-31T13:08:59.000Z,48.10
2019-03-31T13:11:54.735Z,48.30
2019-03-31T13:14:50.229Z,48.30
2019-03-31T13:17:46.092Z,48.50
2019-03-31T13:20:41.673Z,48.10
2019-03-31T13:23:37.396Z,48.10
2019-03-31T13:26:33.532Z,48.20
2019-03-31T13:29:30.585Z,48.40
2019-03-31T13:32:26.847Z,48.30
2019-03-31T13:35:24.435Z,48.50
2019-03-31T13:38:21.205Z,48.60
2019-03-31T13:41:16.915Z,48.50
2019-03-31T13:44:12.356Z,48.20
2019-03-31T13:47:08.724Z,48.40
2019-03-31T13:50:09.348Z,48.40
2019-03-31T13:53:05.978Z,48.40
2019-03-31T13:56:02.993Z,48.60
2019-03-31T13:58:59.557Z,48.40
2019-03-31T14:01:55.918Z,48.20
2019-03-31T14:04:52.823Z,48.30
2019-03-31T14:07:49.273Z,48.30
2019-03-31T14:10:46.287Z,48.30
2019-03-31T14:13:43.270Z,48.20
2019-03-31T14:16:39.357Z,48.40
2019-03-31T14:19:34.953Z,48.30
2019-03-31T14:22:30.515Z,48.30
2019-03-31T14:25:26.984Z,48.20
2019-03-31T14:28:22.571Z,48.20
2019-03-31T14:31:18.254Z,48.20
2019-03-31T14:34:14.250Z,48.20
2019-03-31T14:37:10.059Z,48.60
2019-03-31T14:40:07.810Z,48.10
2019-03-31T14:43:03.263Z,48.10
2019-03-31T14:45:59.096Z,48.10
2019-03-31T14:48:55.237Z,48.10
2019-03-31T14:51:51.308Z,48.10
2019-03-31T14:54:47.102Z,48.10
2019-03-31T14:57:42.892Z,48.20
2019-03-31T15:00:39.278Z,48.10
2019-03-31T15:03:36.772Z,48.00
2019-03-31T15:06:32.678Z,48.10
2019-03-31T15:09:28.609Z,48.10
2019-03-31T15:12:24.338Z,48.00
2019-03-31T15:15:21.469Z,48.10
2019-03-31T15:18:18.169Z,48.10
2019-03-31T15:21:13.740Z,48.10
2019-03-31T15:24:09.047Z,48.10
2019-03-31T15:27:06.237Z,48.10
2019-03-31T15:30:02.486Z,48.10
2019-03-31T15:32:59.554Z,48.10
2019-03-31T15:35:55.211Z,48.10
2019-03-31T15:38:50.842Z,48.10
2019-03-31T15:41:47.837Z,48.90
2019-03-31T15:44:43.372Z,48.10
2019-03-31T15:47:39.645Z,48.10
2019-03-31T15:50:35.175Z,48.10
2019-03-31T15:53:31.166Z,48.10
2019-03-31T15:56:26.941Z,48.20
2019-03-31T15:59:22.741Z,48.20
2019-03-31T16:02:19.735Z,48.30
2019-03-31T16:05:16.748Z,48.30
2019-03-31T16:08:12.225Z,48.30
2019-03-31T16:11:07.622Z,48.20
2019-03-31T16:14:03.116Z,48.40
2019-03-31T16:16:59.554Z,48.20
2019-03-31T16:19:54.612Z,48.30
2019-03-31T16:22:49.725Z,48.30
2019-03-31T16:25:48.376Z,48.30
2019-03-31T16:28:44.598Z,48.30
2019-03-31T16:31:41.012Z,48.40
2019-03-31T16:34:38.285Z,48.40
2019-03-31T16:37:35.855Z,48.20
2019-03-31T16:40:31.164Z,48.30
2019-03-31T16:43:27.668Z,48.20
2019-03-31T16:46:23.476Z,48.30
2019-03-31T16:49:19.515Z,48.30
2019-03-31T16:52:15.691Z,48.20
2019-03-31T16:55:11.158Z,48.20
2019-03-31T16:58:09.575Z,48.20
2019-03-31T17:01:04.525Z,48.30
2019-03-31T17:04:00.065Z,48.40
2019-03-31T17:06:55.631Z,48.30
2019-03-31T17:09:51.911Z,48.30
2019-03-31T17:12:49.499Z,48.30
2019-03-31T17:15:45.395Z,48.30
2019-03-31T17:18:41.296Z,48.20
2019-03-31T17:21:36.913Z,48.40
2019-03-31T17:24:32.651Z,48.30
2019-03-31T17:27:27.848Z,48.20
2019-03-31T17:30:23.985Z,48.30
2019-03-31T17:33:19.390Z,48.40
2019-03-31T17:36:14.731Z,48.30
2019-03-31T17:39:12.894Z,48.40
2019-03-31T17:42:08.771Z,48.40
2019-03-31T17:45:05.247Z,48.30
2019-03-31T17:48:02.110Z,48.40
2019-03-31T17:50:57.866Z,48.70
2019-03-31T17:53:53.073Z,48.70
2019-03-31T17:56:49.346Z,48.80
2019-03-31T17:59:44.532Z,48.70
2019-03-31T18:02:40.123Z,48.60
2019-03-31T18:05:35.434Z,48.60
2019-03-31T18:08:30.488Z,48.60
2019-03-31T18:11:26.514Z,48.60
2019-03-31T18:14:21.600Z,49.00
2019-03-31T18:17:18.830Z,48.50
2019-03-31T18:20:14.506Z,48.90
2019-03-31T18:23:11.407Z,48.80
2019-03-31T18:26:06.714Z,48.80
2019-03-31T18:29:03.706Z,48.90
2019-03-31T18:31:59.119Z,48.90
2019-03-31T18:34:54.118Z,48.80
2019-03-31T18:37:49.788Z,48.80
2019-03-31T18:40:45.826Z,48.80
2019-03-31T18:43:51.242Z,49.00
2019-03-31T18:46:37.301Z,48.90
2019-03-31T18:49:32.625Z,49.00
2019-03-31T18:52:28.857Z,49.10
2019-03-31T18:55:37.731Z,49.10
2019-03-31T18:58:50.723Z,48.90
2019-03-31T19:02:07.059Z,48.90
2019-03-31T19:05:24.684Z,48.80
2019-03-31T19:08:41.744Z,48.80
2019-03-31T19:11:51.222Z,48.90
2019-03-31T19:15:15.984Z,49.20
2019-03-31T19:18:22.481Z,49.00
2019-03-31T19:21:26.652Z,48.90
2019-03-31T19:24:38.028Z,49.00
2019-03-31T19:27:44.707Z,49.00
2019-03-31T19:31:00.528Z,48.90
2019-03-31T19:34:19.457Z,48.90
2019-03-31T19:37:28.701Z,48.90
2019-03-31T19:40:37.364Z,48.90
2019-03-31T19:43:53.523Z,48.80
2019-03-31T19:47:09.762Z,48.80
2019-03-31T19:50:17.734Z,48.80
2019-03-31T19:53:36.869Z,48.90
2019-03-31T19:56:45.634Z,48.80
2019-03-31T20:00:00.729Z,48.80
2019-03-31T20:03:14.012Z,48.80
2019-03-31T20:06:42.485Z,48.80
2019-03-31T20:09:47.911Z,48.80
2019-03-31T20:12:49.151Z,48.70
2019-03-31T20:15:55.806Z,48.70
2019-03-31T20:19:17.254Z,48.80
2019-03-31T20:22:29.411Z,48.70
2019-03-31T20:25:48.530Z,48.60
2019-03-31T20:28:50.173Z,48.60
2019-03-31T20:32:02.629Z,48.60
2019-03-31T20:35:12.278Z,48.70
2019-03-31T20:38:15.774Z,48.60
2019-03-31T20:41:30.372Z,48.70
2019-03-31T20:44:25.568Z,48.60
2019-03-31T20:47:20.420Z,48.70
2019-03-31T20:50:15.842Z,48.90
2019-03-31T20:53:10.747Z,48.80
2019-03-31T20:56:06.342Z,49.00
2019-03-31T20:59:01.286Z,48.60
2019-03-31T21:01:56.776Z,48.60
2019-03-31T21:04:51.991Z,49.40
2019-03-31T21:07:47.164Z,49.20
2019-03-31T21:10:41.961Z,49.00
2019-03-31T21:13:36.928Z,49.10
2019-03-31T21:16:32.076Z,49.00
2019-03-31T21:19:27.034Z,48.90
2019-03-31T21:22:21.843Z,48.80
2019-03-31T21:25:16.900Z,48.80
2019-03-31T21:28:11.703Z,48.80
2019-03-31T21:31:07.400Z,49.00
2019-03-31T21:34:03.274Z,49.10
2019-03-31T21:36:58.146Z,49.50
2019-03-31T21:39:53.566Z,49.70
2019-03-31T21:42:48.362Z,49.90
2019-03-31T21:45:43.619Z,49.90
2019-03-31T21:48:38.457Z,50.10
2019-03-31T21:51:34.087Z,49.50
2019-03-31T21:54:29.281Z,48.60
2019-03-31T21:57:24.215Z,49.30
2019-03-31T22:00:20.530Z,49.10
2019-03-31T22:03:17.103Z,48.90
2019-03-31T22:06:12.710Z,49.00
2019-03-31T22:09:09.469Z,48.80
2019-03-31T22:12:04.550Z,49.00
2019-03-31T22:14:59.676Z,48.50
2019-03-31T22:17:55.222Z,49.00
2019-03-31T22:20:50.529Z,49.10
2019-03-31T22:23:57.415Z,49.20
2019-03-31T22:26:41.990Z,49.10
2019-03-31T22:29:37.497Z,48.50
2019-03-31T22:32:33.006Z,48.60
2019-03-31T22:35:28.877Z,48.10
2019-03-31T22:38:25.156Z,48.20
2019-03-31T22:41:20.478Z,47.70
2019-03-31T22:44:16.148Z,48.10
2019-03-31T22:47:11.676Z,48.60
2019-03-31T22:50:06.722Z,48.60
2019-03-31T22:53:01.685Z,48.10
2019-03-31T22:55:57.154Z,48.20
2019-03-31T22:58:53.123Z,47.30
2019-03-31T23:01:48.583Z,47.20
2019-03-31T23:04:44.096Z,47.00
2019-03-31T23:07:39.191Z,47.40
2019-03-31T23:10:34.189Z,47.10
2019-03-31T23:13:29.693Z,47.60
2019-03-31T23:16:24.609Z,47.60
2019-03-31T23:19:20.959Z,47.00
2019-03-31T23:22:16.123Z,46.80
2019-03-31T23:25:11.774Z,47.00
2019-03-31T23:28:07.335Z,47.40
2019-03-31T23:31:03.667Z,46.80
2019-03-31T23:33:59.113Z,46.80
2019-03-31T23:36:54.525Z,47.90
2019-03-31T23:39:49.607Z,48.00
2019-03-31T23:42:45.186Z,48.20
2019-03-31T23:45:40.789Z,48.70
2019-03-31T23:48:36.126Z,48.40
2019-03-31T23:51:31.462Z,48.70
2019-03-31T23:54:26.183Z,48.40
2019-03-31T23:57:23.798Z,48.40
